Aérodrome :
LOGIN :

S'inscrire | Disclaimer

   EN    FR    IT 

 










Légende :    VFR   VFR Marginal   IFR   IFR Intensif   IFR Très Intensif
Visi : 
Plafond : 
>= 8 km
>= 3000ft
5 à 8 km
1000 à 3000 ft
1500m à 5 km
500 à 1000 ft
800 à 1500m
200 à 500 ft
< 800m
< 200 ft
Symboles :   Orages  Brouillard  Fortes neiges  Fortes précipitations  Vent > 20 kt
SIGMETs :   Divers  Orages  Givrage  Turbulence  Onde Orograph.  Cendres Volcan.






- Altitude de l'aérodrome : 3 ft
- Code IATA : EME


EDWE - Emden

DERNIER METAR :
  • 301920Z AUTO 05007KT 9999 // ///////// 23/18 Q1008

METARs EXPIRÉS :
  • 301850Z AUTO 05008KT 9999 // ///////// 24/18 Q1008
  • 301820Z AUTO 05007KT 9999 // ///////// 25/18 Q1008
  • 301750Z AUTO 05010KT 9999 // ///////// 26/18 Q1008
  • 301720Z AUTO 03005KT 350V060 9999 // ///////// 26/19 Q1009
  • 301650Z AUTO 36004KT 330V030 9999 // ///////// 24/19 Q1009

Prévision TAF périmée.



MET'MAP, la Météo Aéronautique d'un coup d'oeil ! - Copyright ORBIFLY Décembre 2007 - Disclaimer

ORBIFLY MET'MAP TEAM :

Programmation & Développement : Alexandra Zaïnal
Sur une idée originale de : Baudouin d'Aumeries
Soutien technique & logistique : Manuel Goepfert
Assistance : Marc-Olivier Méhu




SOURCES & CREDITS :

   NOAA